createdAt,value
2017-11-27T00:02:20.992Z,1014.27
2017-11-27T00:02:58.257Z,1014.26
2017-11-27T00:03:58.265Z,1014.22
2017-11-27T00:04:58.263Z,1014.28
2017-11-27T00:05:58.565Z,1014.23
2017-11-27T00:06:58.277Z,1014.21
2017-11-27T00:07:58.285Z,1014.25
2017-11-27T00:08:58.352Z,1014.21
2017-11-27T00:09:58.296Z,1014.20
2017-11-27T00:10:58.302Z,1014.18
2017-11-27T00:11:58.309Z,1014.16
2017-11-27T00:12:58.312Z,1014.09
2017-11-27T00:13:58.364Z,1014.11
2017-11-27T00:14:58.321Z,1014.14
2017-11-27T00:15:58.327Z,1014.13
2017-11-27T00:16:58.336Z,1014.11
2017-11-27T00:17:58.340Z,1014.12
2017-11-27T00:19:58.363Z,1014.07
2017-11-27T00:20:58.364Z,1014.11
2017-11-27T00:21:58.354Z,1014.19
2017-11-27T00:22:58.365Z,1014.12
2017-11-27T00:23:58.381Z,1014.04
2017-11-27T00:24:58.376Z,1014.07
2017-11-27T00:25:58.393Z,1014.07
2017-11-27T00:26:58.390Z,1014.07
2017-11-27T00:27:58.388Z,1014.07
2017-11-27T00:28:58.410Z,1014.04
2017-11-27T00:29:58.415Z,1014.10
2017-11-27T00:30:58.410Z,1014.17
2017-11-27T00:31:58.432Z,1014.16
2017-11-27T00:32:58.415Z,1014.18
2017-11-27T00:33:58.445Z,1014.19
2017-11-27T00:34:58.438Z,1014.16
2017-11-27T00:35:58.436Z,1014.16
2017-11-27T00:36:58.464Z,1014.19
2017-11-27T00:37:58.442Z,1014.15
2017-11-27T00:38:58.455Z,1014.14
2017-11-27T00:39:58.457Z,1014.19
2017-11-27T00:40:58.461Z,1014.13
2017-11-27T00:41:58.532Z,1014.10
2017-11-27T00:42:58.499Z,1014.10
2017-11-27T00:43:58.482Z,1014.05
2017-11-27T00:44:58.482Z,1014.11
2017-11-27T00:45:58.499Z,1014.06
2017-11-27T00:46:58.502Z,1014.10
2017-11-27T00:47:58.501Z,1013.97
2017-11-27T00:48:58.502Z,1014.00
2017-11-27T00:49:58.512Z,1013.92
2017-11-27T00:50:58.519Z,1014.02
2017-11-27T00:51:58.571Z,1013.93
2017-11-27T00:52:58.523Z,1013.90
2017-11-27T00:53:58.541Z,1013.89
2017-11-27T00:54:58.613Z,1013.94
2017-11-27T00:55:58.541Z,1014.03
2017-11-27T00:56:58.540Z,1013.90
2017-11-27T00:57:58.559Z,1013.86
2017-11-27T00:58:58.560Z,1013.90
2017-11-27T01:00:58.582Z,1013.88
2017-11-27T01:01:58.580Z,1013.77
2017-11-27T01:02:58.583Z,1013.78
2017-11-27T01:03:58.585Z,1013.74
2017-11-27T01:04:58.599Z,1013.81
2017-11-27T01:05:58.599Z,1013.82
2017-11-27T01:06:58.606Z,1013.79
2017-11-27T01:07:58.611Z,1013.82
2017-11-27T01:08:58.618Z,1013.78
2017-11-27T01:09:58.628Z,1013.81
2017-11-27T01:10:58.634Z,1013.80
2017-11-27T01:11:58.645Z,1013.89
2017-11-27T01:12:58.638Z,1013.91
2017-11-27T01:13:58.647Z,1013.85
2017-11-27T01:14:58.649Z,1013.79
2017-11-27T01:15:58.696Z,1013.84
2017-11-27T01:16:58.676Z,1013.85
2017-11-27T01:17:58.657Z,1013.83
2017-11-27T01:18:58.673Z,1013.94
2017-11-27T01:19:58.755Z,1013.88
2017-11-27T01:20:58.684Z,1013.83
2017-11-27T01:21:58.690Z,1013.87
2017-11-27T01:22:58.762Z,1013.88
2017-11-27T01:23:58.704Z,1013.87
2017-11-27T01:24:58.706Z,1013.88
2017-11-27T01:25:58.705Z,1013.87
2017-11-27T01:26:58.714Z,1013.83
2017-11-27T01:27:58.716Z,1013.83
2017-11-27T01:28:58.722Z,1013.78
2017-11-27T01:30:58.742Z,1013.85
2017-11-27T01:31:58.743Z,1013.86
2017-11-27T01:32:59.218Z,1013.86
2017-11-27T01:33:58.750Z,1013.82
2017-11-27T01:34:58.754Z,1013.87
2017-11-27T01:35:58.768Z,1013.86
2017-11-27T01:36:58.766Z,1013.85
2017-11-27T01:37:59.068Z,1013.88
2017-11-27T01:38:58.781Z,1013.83
2017-11-27T01:39:58.784Z,1013.84
2017-11-27T01:40:58.792Z,1013.84
2017-11-27T01:41:58.791Z,1013.82
2017-11-27T01:42:58.835Z,1013.90
2017-11-27T01:43:58.811Z,1013.91
2017-11-27T01:44:59.009Z,1013.92
2017-11-27T01:45:58.816Z,1013.91
2017-11-27T01:46:58.823Z,1013.89
2017-11-27T01:47:58.836Z,1013.92
2017-11-27T01:48:58.836Z,1013.96
2017-11-27T01:49:58.840Z,1013.93
2017-11-27T01:50:58.861Z,1013.93
2017-11-27T01:51:58.852Z,1013.93
2017-11-27T01:52:58.853Z,1013.88
2017-11-27T01:53:58.870Z,1013.87
2017-11-27T01:54:58.876Z,1013.85
2017-11-27T01:55:58.874Z,1013.79
2017-11-27T01:56:58.888Z,1013.85
2017-11-27T01:57:58.890Z,1013.86
2017-11-27T01:58:58.884Z,1013.86
2017-11-27T01:59:58.907Z,1013.80
2017-11-27T02:00:58.901Z,1013.81
2017-11-27T02:01:58.916Z,1013.70
2017-11-27T02:02:58.923Z,1013.72
2017-11-27T02:03:58.935Z,1013.74
2017-11-27T02:04:58.932Z,1013.76
2017-11-27T02:05:58.933Z,1013.73
2017-11-27T02:06:58.968Z,1013.76
2017-11-27T02:07:58.948Z,1013.89
2017-11-27T02:08:58.950Z,1013.74
2017-11-27T02:09:58.965Z,1013.81
2017-11-27T02:10:58.959Z,1013.74
2017-11-27T02:11:58.962Z,1013.77
2017-11-27T02:12:58.976Z,1013.67
2017-11-27T02:13:58.993Z,1013.71
2017-11-27T02:14:58.988Z,1013.77
2017-11-27T02:15:58.990Z,1013.73
2017-11-27T02:16:59.033Z,1013.69
2017-11-27T02:17:58.997Z,1013.68
2017-11-27T02:18:59.006Z,1013.66
2017-11-27T02:19:59.010Z,1013.69
2017-11-27T02:20:59.014Z,1013.69
2017-11-27T02:21:59.034Z,1013.67
2017-11-27T02:22:59.024Z,1013.63
2017-11-27T02:23:59.026Z,1013.63
2017-11-27T02:24:59.037Z,1013.62
2017-11-27T02:25:59.042Z,1013.54
2017-11-27T02:26:59.051Z,1013.57
2017-11-27T02:27:59.055Z,1013.55
2017-11-27T02:28:59.075Z,1013.61
2017-11-27T02:29:59.069Z,1013.49
2017-11-27T02:30:59.073Z,1013.60
2017-11-27T02:31:59.079Z,1013.56
2017-11-27T02:32:59.081Z,1013.43
2017-11-27T02:33:59.088Z,1013.49
2017-11-27T02:34:59.093Z,1013.47
2017-11-27T02:35:59.099Z,1013.41
2017-11-27T02:36:59.111Z,1013.40
2017-11-27T02:37:59.145Z,1013.47
2017-11-27T02:38:59.118Z,1013.38
2017-11-27T02:39:59.117Z,1013.44
2017-11-27T02:40:59.131Z,1013.41
2017-11-27T02:41:59.175Z,1013.45
2017-11-27T02:42:59.140Z,1013.38
2017-11-27T02:43:59.150Z,1013.45
2017-11-27T02:44:59.157Z,1013.47
2017-11-27T02:45:59.161Z,1013.45
2017-11-27T02:46:59.176Z,1013.51
2017-11-27T02:48:59.486Z,1013.35
2017-11-27T02:49:59.181Z,1013.34
2017-11-27T02:50:59.190Z,1013.32
2017-11-27T02:51:59.185Z,1013.31
2017-11-27T02:53:59.200Z,1013.26
2017-11-27T02:54:59.229Z,1013.32
2017-11-27T02:55:59.205Z,1013.29
2017-11-27T02:56:59.229Z,1013.34
2017-11-27T02:57:59.224Z,1013.40
2017-11-27T02:58:59.235Z,1013.36
2017-11-27T02:59:59.234Z,1013.33
2017-11-27T03:00:59.235Z,1013.39
2017-11-27T03:01:59.245Z,1013.38
2017-11-27T03:02:59.253Z,1013.39
2017-11-27T03:03:59.249Z,1013.28
2017-11-27T03:05:00.219Z,1013.23
2017-11-27T03:05:59.265Z,1013.18
2017-11-27T03:06:59.273Z,1013.16
2017-11-27T03:07:59.278Z,1013.12
2017-11-27T03:08:59.286Z,1013.14
2017-11-27T03:09:59.286Z,1013.14
2017-11-27T03:10:59.296Z,1013.10
2017-11-27T03:11:59.300Z,1013.15
2017-11-27T03:12:59.306Z,1013.06
2017-11-27T03:13:59.344Z,1013.13
2017-11-27T03:14:59.315Z,1013.06
2017-11-27T03:15:59.323Z,1013.05
2017-11-27T03:16:59.329Z,1013.09
2017-11-27T03:17:59.331Z,1013.07
2017-11-27T03:18:59.334Z,1013.04
2017-11-27T03:19:59.351Z,1012.99
2017-11-27T03:20:59.348Z,1012.95
2017-11-27T03:21:59.387Z,1012.99
2017-11-27T03:22:59.364Z,1012.99
2017-11-27T03:23:59.368Z,1012.94
2017-11-27T03:24:59.406Z,1012.98
2017-11-27T03:25:59.380Z,1012.90
2017-11-27T03:26:59.385Z,1012.93
2017-11-27T03:27:59.394Z,1012.92
2017-11-27T03:28:59.393Z,1012.93
2017-11-27T03:29:59.406Z,1012.88
2017-11-27T03:30:59.414Z,1012.83
2017-11-27T03:31:59.420Z,1012.86
2017-11-27T03:32:59.488Z,1012.80
2017-11-27T03:33:59.420Z,1012.87
2017-11-27T03:34:59.437Z,1012.84
2017-11-27T03:35:59.436Z,1012.83
2017-11-27T03:36:59.442Z,1012.85
2017-11-27T03:37:59.453Z,1012.84
2017-11-27T03:38:59.447Z,1012.87
2017-11-27T03:39:59.459Z,1012.84
2017-11-27T03:40:59.459Z,1012.80
2017-11-27T03:41:59.471Z,1012.81
2017-11-27T03:42:59.471Z,1012.88
2017-11-27T03:43:59.493Z,1012.82
2017-11-27T03:44:59.488Z,1012.78
2017-11-27T03:45:59.491Z,1012.76
2017-11-27T03:46:59.506Z,1012.76
2017-11-27T03:47:59.503Z,1012.70
2017-11-27T03:48:59.506Z,1012.68
2017-11-27T03:49:59.518Z,1012.72
2017-11-27T03:50:59.517Z,1012.76
2017-11-27T03:51:59.531Z,1012.73
2017-11-27T03:52:59.537Z,1012.74
2017-11-27T03:53:59.542Z,1012.75
2017-11-27T03:54:59.559Z,1012.67
2017-11-27T03:55:59.555Z,1012.58
2017-11-27T03:56:59.582Z,1012.63
2017-11-27T03:57:59.568Z,1012.57
2017-11-27T03:58:59.563Z,1012.68
2017-11-27T03:59:59.576Z,1012.55
2017-11-27T04:00:59.583Z,1012.59
2017-11-27T04:01:59.588Z,1012.56
2017-11-27T04:02:59.596Z,1012.58
2017-11-27T04:03:59.856Z,1012.54
2017-11-27T04:04:59.617Z,1012.56
2017-11-27T04:05:59.616Z,1012.56
2017-11-27T04:06:59.617Z,1012.59
2017-11-27T04:07:59.658Z,1012.55
2017-11-27T04:08:59.635Z,1012.54
2017-11-27T04:09:59.633Z,1012.46
2017-11-27T04:10:59.638Z,1012.48
2017-11-27T04:11:59.650Z,1012.45
2017-11-27T04:12:59.654Z,1012.41
2017-11-27T04:13:59.653Z,1012.46
2017-11-27T04:14:59.661Z,1012.39
2017-11-27T04:15:59.671Z,1012.39
2017-11-27T04:16:59.674Z,1012.39
2017-11-27T04:17:59.677Z,1012.43
2017-11-27T04:18:59.687Z,1012.39
2017-11-27T04:19:59.779Z,1012.33
2017-11-27T04:20:59.710Z,1012.26
2017-11-27T04:21:59.707Z,1012.27
2017-11-27T04:22:59.718Z,1012.28
2017-11-27T04:23:59.712Z,1012.32
2017-11-27T04:25:59.726Z,1012.28
2017-11-27T04:26:59.747Z,1012.24
2017-11-27T04:27:59.740Z,1012.25
2017-11-27T04:28:59.747Z,1012.23
2017-11-27T04:29:59.755Z,1012.19
2017-11-27T04:30:59.764Z,1012.33
2017-11-27T04:31:59.772Z,1012.16
2017-11-27T04:32:59.776Z,1012.23
2017-11-27T04:33:59.772Z,1012.15
2017-11-27T04:34:59.796Z,1012.14
2017-11-27T04:35:59.787Z,1012.15
2017-11-27T04:36:59.817Z,1012.13
2017-11-27T04:37:59.809Z,1012.10
2017-11-27T04:38:59.802Z,1012.05
2017-11-27T04:39:59.802Z,1012.02
2017-11-27T04:40:59.815Z,1012.08
2017-11-27T04:41:59.824Z,1012.03
2017-11-27T04:42:59.910Z,1012.02
2017-11-27T04:43:59.833Z,1012.03
2017-11-27T04:44:59.843Z,1012.01
2017-11-27T04:45:59.846Z,1012.08
2017-11-27T04:46:59.948Z,1012.06
2017-11-27T04:47:59.859Z,1012.01
2017-11-27T04:48:59.862Z,1012.04
2017-11-27T04:49:59.874Z,1012.00
2017-11-27T04:50:59.874Z,1012.00
2017-11-27T04:51:59.882Z,1011.99
2017-11-27T04:55:05.260Z,1011.88
2017-11-27T04:56:03.521Z,1011.94
2017-11-27T04:57:03.518Z,1011.89
2017-11-27T04:58:03.522Z,1011.88
2017-11-27T04:59:03.533Z,1011.87
2017-11-27T05:00:03.541Z,1011.92
2017-11-27T05:01:03.550Z,1011.89
2017-11-27T05:02:03.549Z,1011.90
2017-11-27T05:03:03.553Z,1011.90
2017-11-27T05:04:03.566Z,1011.95
2017-11-27T05:05:03.573Z,1011.99
2017-11-27T05:06:03.573Z,1011.92
2017-11-27T05:07:03.579Z,1011.83
2017-11-27T05:08:03.578Z,1011.80
2017-11-27T05:09:03.609Z,1011.82
2017-11-27T05:10:03.593Z,1011.79
2017-11-27T05:11:03.604Z,1011.73
2017-11-27T05:12:03.602Z,1011.78
2017-11-27T05:13:03.612Z,1011.87
2017-11-27T05:14:03.617Z,1011.84
2017-11-27T05:15:03.627Z,1011.73
2017-11-27T05:16:03.636Z,1011.72
2017-11-27T05:17:03.637Z,1011.64
2017-11-27T05:18:03.643Z,1011.67
2017-11-27T05:19:03.650Z,1011.67
2017-11-27T05:20:03.655Z,1011.66
2017-11-27T05:21:03.698Z,1011.66
2017-11-27T05:22:03.774Z,1011.51
2017-11-27T05:23:03.694Z,1011.58
2017-11-27T05:24:03.682Z,1011.55
2017-11-27T05:25:03.683Z,1011.51
2017-11-27T05:26:03.694Z,1011.46
2017-11-27T05:27:03.694Z,1011.51
2017-11-27T05:28:03.700Z,1011.58
2017-11-27T05:29:03.718Z,1011.52
2017-11-27T05:30:03.713Z,1011.59
2017-11-27T05:31:03.721Z,1011.56
2017-11-27T05:32:03.727Z,1011.48
2017-11-27T05:33:03.735Z,1011.50
2017-11-27T05:34:03.737Z,1011.47
2017-11-27T05:35:03.754Z,1011.44
2017-11-27T05:36:03.760Z,1011.44
2017-11-27T05:37:03.759Z,1011.34
2017-11-27T05:38:03.756Z,1011.40
2017-11-27T05:39:03.771Z,1011.35
2017-11-27T05:40:03.772Z,1011.33
2017-11-27T05:41:03.776Z,1011.26
2017-11-27T05:42:03.783Z,1011.28
2017-11-27T05:43:03.785Z,1011.21
2017-11-27T05:44:03.870Z,1011.24
2017-11-27T05:45:03.813Z,1011.21
2017-11-27T05:46:03.805Z,1011.21
2017-11-27T05:47:03.809Z,1011.28
2017-11-27T05:48:03.814Z,1011.21
2017-11-27T05:49:03.820Z,1011.24
2017-11-27T05:50:03.829Z,1011.27
2017-11-27T05:51:03.832Z,1011.24
2017-11-27T05:52:03.838Z,1011.23
2017-11-27T05:53:03.846Z,1011.21
2017-11-27T05:54:03.847Z,1011.20
2017-11-27T05:56:03.874Z,1011.19
2017-11-27T05:57:03.872Z,1011.18
2017-11-27T05:58:03.880Z,1011.16
2017-11-27T05:59:03.889Z,1011.10
2017-11-27T06:00:03.888Z,1011.08
2017-11-27T06:01:04.236Z,1011.12
2017-11-27T06:02:03.897Z,1011.06
2017-11-27T06:03:03.903Z,1011.03
2017-11-27T06:04:03.907Z,1011.01
2017-11-27T06:05:03.925Z,1010.97
2017-11-27T06:06:03.927Z,1010.96
2017-11-27T06:07:03.939Z,1010.86
2017-11-27T06:08:04.070Z,1010.91
2017-11-27T06:09:03.942Z,1010.89
2017-11-27T06:10:03.940Z,1010.90
2017-11-27T06:11:03.952Z,1010.85
2017-11-27T06:12:03.963Z,1010.82
2017-11-27T06:13:03.962Z,1010.82
2017-11-27T06:14:03.965Z,1010.72
2017-11-27T06:15:03.975Z,1010.74
2017-11-27T06:16:03.979Z,1010.71
2017-11-27T06:17:03.981Z,1010.71
2017-11-27T06:18:03.989Z,1010.68
2017-11-27T06:19:04.071Z,1010.63
2017-11-27T06:20:04.000Z,1010.64
2017-11-27T06:21:04.005Z,1010.61
2017-11-27T06:22:04.005Z,1010.59
2017-11-27T06:23:04.014Z,1010.57
2017-11-27T06:24:04.025Z,1010.51
2017-11-27T06:25:04.077Z,1010.54
2017-11-27T06:26:04.041Z,1010.41
2017-11-27T06:27:04.041Z,1010.45
2017-11-27T06:28:04.046Z,1010.39
2017-11-27T06:29:04.053Z,1010.51
2017-11-27T06:30:04.280Z,1010.35
2017-11-27T06:31:04.059Z,1010.40
2017-11-27T06:32:04.071Z,1010.33
2017-11-27T06:34:04.074Z,1010.31
2017-11-27T06:35:04.311Z,1010.34
2017-11-27T06:36:04.094Z,1010.27
2017-11-27T06:37:04.092Z,1010.27
2017-11-27T06:38:04.095Z,1010.22
2017-11-27T06:39:04.109Z,1010.14
2017-11-27T06:40:04.109Z,1010.20
2017-11-27T06:41:04.115Z,1010.18
2017-11-27T06:42:04.131Z,1010.22
2017-11-27T06:43:04.132Z,1010.20
2017-11-27T06:44:04.137Z,1010.19
2017-11-27T06:45:04.136Z,1010.13
2017-11-27T06:46:04.152Z,1010.14
2017-11-27T06:47:04.151Z,1010.18
2017-11-27T06:48:04.174Z,1010.19
2017-11-27T06:49:04.164Z,1010.10
2017-11-27T06:50:04.181Z,1010.10
2017-11-27T06:51:04.178Z,1010.12
2017-11-27T06:52:04.186Z,1009.96
2017-11-27T06:53:04.204Z,1010.05
2017-11-27T06:54:04.215Z,1009.97
2017-11-27T06:55:04.223Z,1009.96
2017-11-27T06:56:04.205Z,1010.08
2017-11-27T06:57:04.232Z,1009.80
2017-11-27T06:58:04.212Z,1009.93
2017-11-27T06:59:04.225Z,1009.82
2017-11-27T07:00:04.230Z,1009.84
2017-11-27T07:01:04.232Z,1009.87
2017-11-27T07:02:04.242Z,1009.82
2017-11-27T07:03:04.245Z,1009.77
2017-11-27T07:04:04.258Z,1009.79
2017-11-27T07:05:04.265Z,1009.74
2017-11-27T07:06:04.266Z,1009.71
2017-11-27T07:07:04.272Z,1009.69
2017-11-27T07:09:04.293Z,1009.72
2017-11-27T07:10:04.289Z,1009.69
2017-11-27T07:11:04.296Z,1009.65
2017-11-27T07:12:04.302Z,1009.63
2017-11-27T07:13:04.313Z,1009.56
2017-11-27T07:14:04.306Z,1009.59
2017-11-27T07:15:04.315Z,1009.57
2017-11-27T07:16:04.318Z,1009.57
2017-11-27T07:17:04.334Z,1009.60
2017-11-27T07:18:04.330Z,1009.61
2017-11-27T07:19:04.340Z,1009.63
2017-11-27T07:20:04.434Z,1009.50
2017-11-27T07:21:04.353Z,1009.45
2017-11-27T07:22:04.363Z,1009.39
2017-11-27T07:23:04.404Z,1009.37
2017-11-27T07:24:04.372Z,1009.43
2017-11-27T07:25:04.381Z,1009.34
2017-11-27T07:26:04.408Z,1009.32
2017-11-27T07:27:04.430Z,1009.32
2017-11-27T07:28:04.386Z,1009.35
2017-11-27T07:29:04.398Z,1009.28
2017-11-27T07:30:04.414Z,1009.35
2017-11-27T07:31:04.408Z,1009.25
2017-11-27T07:32:04.431Z,1009.30
2017-11-27T07:33:04.423Z,1009.33
2017-11-27T07:34:04.426Z,1009.36
2017-11-27T07:35:04.438Z,1009.28
2017-11-27T07:36:04.432Z,1009.38
2017-11-27T07:37:04.447Z,1009.28
2017-11-27T07:38:04.460Z,1009.26
2017-11-27T07:39:04.457Z,1009.29
2017-11-27T07:40:04.464Z,1009.33
2017-11-27T07:41:04.461Z,1009.25
2017-11-27T07:42:04.475Z,1009.26
2017-11-27T07:43:04.481Z,1009.09
2017-11-27T07:45:04.499Z,1009.22
2017-11-27T07:46:04.502Z,1009.20
2017-11-27T07:48:04.623Z,1009.09
2017-11-27T07:49:04.517Z,1009.17
2017-11-27T07:50:04.522Z,1009.16
2017-11-27T07:51:04.527Z,1008.93
2017-11-27T07:52:04.532Z,1009.07
2017-11-27T07:53:04.539Z,1008.90
2017-11-27T07:54:04.607Z,1008.98
2017-11-27T07:55:04.548Z,1008.91
2017-11-27T07:56:04.560Z,1008.89
2017-11-27T07:57:04.563Z,1008.93
2017-11-27T07:58:04.570Z,1008.90
2017-11-27T07:59:04.577Z,1008.92
2017-11-27T08:00:04.580Z,1008.88
2017-11-27T08:01:04.600Z,1008.88
2017-11-27T08:02:04.593Z,1008.83
2017-11-27T08:03:04.599Z,1008.76
2017-11-27T08:04:04.604Z,1008.75
2017-11-27T08:05:04.618Z,1008.78
2017-11-27T08:06:04.642Z,1008.77
2017-11-27T08:07:04.626Z,1008.79
2017-11-27T08:08:04.625Z,1008.64
2017-11-27T08:09:04.646Z,1008.65
2017-11-27T08:11:38.254Z,1008.68
2017-11-27T08:17:10.228Z,1008.45
2017-11-27T08:18:10.234Z,1008.31
2017-11-27T08:19:10.233Z,1008.31
2017-11-27T08:20:10.244Z,1008.40
2017-11-27T08:21:10.253Z,1008.40
2017-11-27T08:22:10.256Z,1008.27
2017-11-27T08:23:10.269Z,1008.33
2017-11-27T08:24:10.261Z,1008.23
2017-11-27T08:26:10.280Z,1008.30
2017-11-27T08:28:10.289Z,1008.23
2017-11-27T08:29:10.288Z,1008.27
2017-11-27T08:30:10.299Z,1008.23
2017-11-27T08:32:10.311Z,1008.21
2017-11-27T08:34:10.325Z,1008.08
2017-11-27T08:35:10.332Z,1008.02
2017-11-27T08:37:10.340Z,1008.10
2017-11-27T08:38:10.357Z,1008.13
2017-11-27T08:39:10.346Z,1008.08
2017-11-27T08:40:10.358Z,1008.00
2017-11-27T08:41:10.358Z,1008.07
2017-11-27T08:42:10.362Z,1008.12
2017-11-27T08:43:10.370Z,1007.98
2017-11-27T08:44:10.378Z,1008.09
2017-11-27T08:45:10.384Z,1007.96
2017-11-27T08:46:10.397Z,1008.11
2017-11-27T08:47:10.391Z,1007.94
2017-11-27T08:49:10.491Z,1007.85
2017-11-27T08:50:10.440Z,1007.78
2017-11-27T08:51:10.431Z,1007.86
2017-11-27T08:52:10.419Z,1007.79
2017-11-27T08:53:10.426Z,1007.81
2017-11-27T08:54:10.432Z,1007.73
2017-11-27T08:55:10.438Z,1007.80
2017-11-27T08:56:10.443Z,1007.92
2017-11-27T08:57:10.452Z,1007.66
2017-11-27T08:58:10.458Z,1007.60
2017-11-27T08:59:10.460Z,1007.61
2017-11-27T09:00:10.469Z,1007.60
2017-11-27T09:01:10.472Z,1007.52
2017-11-27T09:02:10.480Z,1007.53
2017-11-27T09:03:10.492Z,1007.54
2017-11-27T09:04:10.528Z,1007.68
2017-11-27T09:05:10.499Z,1007.45
2017-11-27T09:06:10.503Z,1007.49
2017-11-27T09:07:10.501Z,1007.49
2017-11-27T09:08:10.510Z,1007.36
2017-11-27T09:09:10.513Z,1007.40
2017-11-27T09:10:10.532Z,1007.44
2017-11-27T09:11:10.534Z,1007.46
2017-11-27T09:12:10.535Z,1007.53
2017-11-27T09:13:10.544Z,1007.28
2017-11-27T09:14:11.235Z,1007.29
2017-11-27T09:15:10.560Z,1007.34
2017-11-27T09:16:10.565Z,1007.33
2017-11-27T09:17:10.569Z,1007.27
2017-11-27T09:18:10.620Z,1007.26
2017-11-27T09:19:10.575Z,1007.16
2017-11-27T09:20:10.584Z,1007.23
2017-11-27T09:21:10.584Z,1007.07
2017-11-27T09:22:10.594Z,1007.26
2017-11-27T09:23:10.601Z,1007.09
2017-11-27T09:24:10.611Z,1007.17
2017-11-27T09:25:10.615Z,1007.01
2017-11-27T09:26:10.624Z,1007.15
2017-11-27T09:27:10.639Z,1007.11
2017-11-27T09:28:10.625Z,1007.03
2017-11-27T09:29:10.630Z,1007.02
2017-11-27T09:30:10.638Z,1007.02
2017-11-27T09:31:10.641Z,1007.01
2017-11-27T09:32:10.652Z,1006.99
2017-11-27T09:33:10.660Z,1006.97
2017-11-27T09:34:10.665Z,1006.95
2017-11-27T09:35:10.672Z,1006.96
2017-11-27T09:36:10.675Z,1006.80
2017-11-27T09:37:10.677Z,1006.70
2017-11-27T09:38:10.686Z,1006.71
2017-11-27T09:39:10.688Z,1006.81
2017-11-27T09:40:10.693Z,1006.88
2017-11-27T09:41:10.701Z,1006.42
2017-11-27T09:42:10.716Z,1006.76
2017-11-27T09:43:10.714Z,1006.81
2017-11-27T09:44:10.718Z,1006.73
2017-11-27T09:45:10.727Z,1006.76
2017-11-27T09:46:10.730Z,1006.67
2017-11-27T09:47:10.737Z,1006.76
2017-11-27T09:48:10.747Z,1006.77
2017-11-27T09:49:10.757Z,1006.68
2017-11-27T09:50:10.763Z,1006.69
2017-11-27T09:51:10.759Z,1006.68
2017-11-27T09:52:11.238Z,1006.65
2017-11-27T09:53:10.779Z,1006.60
2017-11-27T09:54:10.773Z,1006.61
2017-11-27T09:55:10.785Z,1006.61
2017-11-27T09:56:10.792Z,1006.60
2017-11-27T09:57:10.797Z,1006.69
2017-11-27T09:58:10.796Z,1006.56
2017-11-27T09:59:10.872Z,1006.54
2017-11-27T10:00:10.819Z,1006.51
2017-11-27T10:01:10.817Z,1006.54
2017-11-27T10:02:10.829Z,1006.19
2017-11-27T10:03:10.827Z,1006.38
2017-11-27T10:04:10.834Z,1006.33
2017-11-27T10:05:10.898Z,1006.43
2017-11-27T10:06:10.846Z,1006.39
2017-11-27T10:07:10.846Z,1006.42
2017-11-27T10:08:10.851Z,1006.27
2017-11-27T10:09:10.856Z,1006.31
2017-11-27T10:10:10.869Z,1006.23
2017-11-27T10:11:10.877Z,1006.28
2017-11-27T10:12:10.979Z,1006.20
2017-11-27T10:13:10.894Z,1006.19
2017-11-27T10:14:10.889Z,1006.22
2017-11-27T10:15:10.890Z,1006.16
2017-11-27T10:16:10.901Z,1006.24
2017-11-27T10:17:10.907Z,1006.13
2017-11-27T10:18:10.930Z,1006.08
2017-11-27T10:19:10.934Z,1006.01
2017-11-27T10:20:10.927Z,1006.04
2017-11-27T10:21:10.928Z,1006.01
2017-11-27T10:22:10.937Z,1006.08
2017-11-27T10:23:10.946Z,1006.03
2017-11-27T10:24:10.948Z,1006.05
2017-11-27T10:25:11.034Z,1006.00
2017-11-27T10:26:10.958Z,1005.93
2017-11-27T10:27:11.007Z,1005.89
2017-11-27T10:28:10.980Z,1005.99
2017-11-27T10:29:10.984Z,1005.85
2017-11-27T10:30:10.980Z,1005.72
2017-11-27T10:31:10.993Z,1005.88
2017-11-27T10:32:11.005Z,1005.79
2017-11-27T10:33:11.061Z,1005.70
2017-11-27T10:34:11.012Z,1005.80
2017-11-27T10:35:11.014Z,1005.64
2017-11-27T10:37:11.474Z,1005.54
2017-11-27T10:38:11.030Z,1005.55
2017-11-27T10:40:11.069Z,1005.40
2017-11-27T10:41:11.048Z,1005.36
2017-11-27T10:42:11.057Z,1005.34
2017-11-27T10:43:11.059Z,1005.18
2017-11-27T10:44:11.070Z,1005.13
2017-11-27T10:45:11.171Z,1005.11
2017-11-27T10:46:11.082Z,1005.19
2017-11-27T10:47:11.101Z,1005.05
2017-11-27T10:48:11.146Z,1005.03
2017-11-27T10:49:11.109Z,1005.01
2017-11-27T10:50:11.113Z,1004.86
2017-11-27T10:51:11.109Z,1004.65
2017-11-27T10:52:11.118Z,1004.80
2017-11-27T10:54:39.128Z,1004.77
2017-11-27T10:59:51.581Z,1004.40
2017-11-27T17:53:19.348Z,999.50
2017-11-27T17:54:19.363Z,999.50
2017-11-27T17:56:19.371Z,999.39
2017-11-27T17:57:19.380Z,999.37
2017-11-27T17:58:19.405Z,999.45
2017-11-27T18:00:19.401Z,999.30
2017-11-27T18:01:19.415Z,999.33
2017-11-27T18:02:19.416Z,999.36
2017-11-27T18:03:19.424Z,999.33
2017-11-27T18:04:19.428Z,999.43
2017-11-27T18:05:19.432Z,999.31
2017-11-27T18:06:19.448Z,999.48
2017-11-27T18:07:19.452Z,999.40
2017-11-27T18:08:19.470Z,999.32
2017-11-27T18:09:19.479Z,999.35
2017-11-27T18:10:19.485Z,999.41
2017-11-27T18:11:19.485Z,999.44
2017-11-27T18:12:19.485Z,999.33
2017-11-27T18:13:19.492Z,999.34
2017-11-27T18:15:19.514Z,999.27
2017-11-27T18:16:19.521Z,999.29
2017-11-27T18:17:19.535Z,999.36
2017-11-27T18:18:19.573Z,999.34
2017-11-27T18:19:19.554Z,999.33
2017-11-27T18:20:19.557Z,999.33
2017-11-27T18:21:19.562Z,999.36
2017-11-27T18:23:41.396Z,999.38
2017-11-27T18:29:23.162Z,999.54
2017-11-27T18:30:23.151Z,999.50
2017-11-27T18:31:23.174Z,999.64
2017-11-27T18:32:23.174Z,999.61
2017-11-27T18:33:23.183Z,999.57
2017-11-27T18:34:23.228Z,999.52
2017-11-27T18:35:23.198Z,999.47
2017-11-27T18:36:23.202Z,999.50
2017-11-27T18:37:23.212Z,999.44
2017-11-27T18:38:23.212Z,999.34
2017-11-27T18:39:23.232Z,999.44
2017-11-27T18:40:23.240Z,999.39
2017-11-27T18:42:23.252Z,999.42
2017-11-27T18:43:23.255Z,999.42
2017-11-27T18:44:23.350Z,999.33
2017-11-27T18:45:23.273Z,999.34
2017-11-27T18:46:23.282Z,999.39
2017-11-27T18:47:23.287Z,999.39
2017-11-27T18:48:23.292Z,999.35
2017-11-27T18:49:23.302Z,999.35
2017-11-27T18:50:23.307Z,999.26
2017-11-27T18:51:23.317Z,999.30
2017-11-27T18:52:23.331Z,999.31
2017-11-27T18:53:23.344Z,999.33
2017-11-27T18:54:23.341Z,999.26
2017-11-27T18:55:23.349Z,999.28
2017-11-27T18:56:23.365Z,999.36
2017-11-27T18:57:23.394Z,999.20
2017-11-27T18:58:23.366Z,999.23
2017-11-27T18:59:23.388Z,999.23
2017-11-27T19:00:23.394Z,999.19
2017-11-27T19:01:23.396Z,999.23
2017-11-27T19:02:23.396Z,999.14
2017-11-27T19:03:23.410Z,999.12
2017-11-27T19:05:57.985Z,999.22
2017-11-27T19:11:27.313Z,998.98
2017-11-27T19:12:27.316Z,999.03
2017-11-27T19:13:27.324Z,999.07
2017-11-27T19:14:27.352Z,999.07
2017-11-27T19:15:27.349Z,999.07
2017-11-27T19:16:27.365Z,998.99
2017-11-27T19:17:27.370Z,998.92
2017-11-27T19:18:27.372Z,998.90
2017-11-27T19:19:27.377Z,998.98
2017-11-27T19:20:27.377Z,998.88
2017-11-27T19:21:27.389Z,998.95
2017-11-27T19:22:27.392Z,998.99
2017-11-27T19:23:27.403Z,998.92
2017-11-27T19:24:27.412Z,998.89
2017-11-27T19:25:27.421Z,999.05
2017-11-27T19:26:27.420Z,998.99
2017-11-27T19:27:27.435Z,998.95
2017-11-27T19:28:27.452Z,999.04
2017-11-27T19:29:27.461Z,999.07
2017-11-27T19:30:27.462Z,999.06
2017-11-27T19:31:27.456Z,999.15
2017-11-27T19:32:27.464Z,999.11
2017-11-27T19:33:27.488Z,999.09
2017-11-27T19:34:27.485Z,999.10
2017-11-27T19:35:27.558Z,999.16
2017-11-27T19:36:27.507Z,999.19
2017-11-27T19:37:27.509Z,999.25
2017-11-27T19:38:27.521Z,999.20
2017-11-27T19:39:27.524Z,999.18
2017-11-27T19:40:27.530Z,999.25
2017-11-27T19:41:27.542Z,999.30
2017-11-27T19:42:27.538Z,999.25
2017-11-27T19:43:27.562Z,999.35
2017-11-27T19:44:27.562Z,999.45
2017-11-27T19:45:27.563Z,999.47
2017-11-27T19:46:27.587Z,999.45
2017-11-27T19:47:27.587Z,999.31
2017-11-27T19:48:27.595Z,999.36
2017-11-27T19:49:27.597Z,999.42
2017-11-27T19:50:27.611Z,999.37
2017-11-27T19:51:27.629Z,999.29